TNCB Airport Information

Runway Information
Runway 10 Length 9449 ft width 148 ft
Elevation 14 ft Threshold 0 ft Heading 92
Runway 28 Length 9449 ft Width 148 ft
Elevation 20 ft Threshold 0 ft Heading 272
Airport Frequencies
Type TWR Name TWR Frequency 118.7 MHZ
Airport Navaids
Type NDB Name Bonaire Frequency 321 KHZ
Airport Weather Information & NOTAM
ADDS - METARS form results

(1443 UTC 22 July 2018)
 
METAR text: TNCB 221355Z 11015KT 080V140 0050 FEW017 29/24 Q1014
Conditions at: TNCB (BONAIRE/FLAMINGO, AN) observed 1355 UTC 22 July 2018
Temperature: 29.0°C (84°F)
Dewpoint: 24.0°C (75°F) [RH = 74%]
Pressure (altimeter): 29.94 inches Hg (1014.0 mb)
Winds: from the ESE (110 degrees) at 17 MPH (15 knots; 7.8 m/s)
Visibility: 0.03 miles (0.05 km)
Ceiling: at least 12,000 feet AGL
Clouds: few clouds at 1700 feet AGL
Weather: no significant weather observed at this time